createdAt,value
2022-12-23T00:01:23.215Z,27.83
2022-12-23T00:03:49.732Z,27.50
2022-12-23T00:06:17.831Z,31.90
2022-12-23T00:08:44.349Z,45.13
2022-12-23T00:11:14.800Z,27.08
2022-12-23T00:13:59.821Z,28.10
2022-12-23T00:16:26.269Z,25.45
2022-12-23T00:18:54.339Z,27.27
2022-12-23T00:21:21.747Z,22.02
2022-12-23T00:23:50.278Z,27.58
2022-12-23T00:26:20.074Z,27.52
2022-12-23T00:28:46.428Z,34.35
2022-12-23T00:31:13.770Z,27.52
2022-12-23T00:33:42.893Z,35.00
2022-12-23T00:36:19.660Z,24.95
2022-12-23T00:39:05.218Z,29.80
2022-12-23T00:41:50.677Z,31.20
2022-12-23T00:44:17.137Z,33.50
2022-12-23T00:46:43.621Z,37.42
2022-12-23T00:49:31.968Z,32.55
2022-12-23T00:51:59.010Z,32.63
2022-12-23T00:54:25.647Z,28.98
2022-12-23T00:56:52.205Z,28.48
2022-12-23T00:59:18.724Z,34.60
2022-12-23T01:02:04.343Z,37.05
2022-12-23T01:04:49.397Z,35.28
2022-12-23T01:07:16.212Z,30.23
2022-12-23T01:09:42.908Z,29.98
2022-12-23T01:12:09.534Z,32.80
2022-12-23T01:14:36.687Z,31.20
2022-12-23T01:17:03.369Z,26.67
2022-12-23T01:19:29.807Z,27.77
2022-12-23T01:21:56.171Z,25.20
2022-12-23T01:24:23.026Z,27.67
2022-12-23T01:26:49.403Z,25.70
2022-12-23T01:29:15.734Z,34.83
2022-12-23T01:31:42.163Z,27.52
2022-12-23T01:34:08.563Z,24.30
2022-12-23T01:36:34.959Z,28.60
2022-12-23T01:39:01.381Z,24.60
2022-12-23T01:41:50.176Z,22.75
2022-12-23T01:44:52.021Z,33.90
2022-12-23T01:47:33.815Z,23.15
2022-12-23T01:50:14.709Z,31.58
2022-12-23T01:52:47.845Z,30.52
2022-12-23T01:55:17.492Z,27.13
2022-12-23T01:57:44.879Z,26.55
2022-12-23T02:00:30.482Z,28.88
2022-12-23T02:03:15.333Z,29.45
2022-12-23T02:05:44.498Z,23.13
2022-12-23T02:08:30.104Z,30.40
2022-12-23T02:11:28.103Z,27.77
2022-12-23T02:14:37.831Z,28.17
2022-12-23T02:17:21.391Z,26.05
2022-12-23T02:20:18.171Z,31.65
2022-12-23T02:23:08.082Z,27.92
2022-12-23T02:26:11.974Z,33.25
2022-12-23T02:28:52.477Z,30.65
2022-12-23T02:31:29.609Z,34.75
2022-12-23T02:34:17.218Z,23.00
2022-12-23T02:37:02.935Z,30.37
2022-12-23T02:39:42.478Z,22.60
2022-12-23T02:42:15.447Z,29.02
2022-12-23T02:45:01.832Z,27.73
2022-12-23T02:47:34.526Z,27.20
2022-12-23T02:50:09.433Z,25.13
2022-12-23T02:52:38.349Z,29.40
2022-12-23T02:55:13.126Z,30.80
2022-12-23T02:57:44.781Z,32.42
2022-12-23T03:00:12.498Z,32.65
2022-12-23T03:02:41.635Z,34.80
2022-12-23T03:05:28.071Z,34.08
2022-12-23T03:08:00.168Z,29.88
2022-12-23T03:11:05.398Z,33.00
2022-12-23T03:13:41.040Z,37.20
2022-12-23T03:16:10.455Z,35.60
2022-12-23T03:18:56.519Z,40.95
2022-12-23T03:21:35.551Z,42.17
2022-12-23T03:24:14.011Z,40.92
2022-12-23T03:26:52.108Z,44.90
2022-12-23T03:29:32.299Z,39.83
2022-12-23T03:32:02.763Z,35.22
2022-12-23T03:34:36.538Z,32.85
2022-12-23T03:37:08.084Z,35.25
2022-12-23T03:39:47.039Z,36.35
2022-12-23T03:42:20.880Z,34.72
2022-12-23T03:45:11.156Z,27.40
2022-12-23T03:47:48.935Z,25.92
2022-12-23T03:50:19.410Z,26.83
2022-12-23T03:52:59.669Z,26.15
2022-12-23T03:55:54.056Z,23.13
2022-12-23T03:58:26.563Z,23.40
2022-12-23T04:01:00.515Z,21.60
2022-12-23T04:03:48.478Z,21.60
2022-12-23T04:06:16.690Z,21.80
2022-12-23T04:08:45.921Z,21.45
2022-12-23T04:11:12.966Z,15.48
2022-12-23T04:13:39.375Z,15.27
2022-12-23T04:16:06.685Z,14.27
2022-12-23T04:18:33.303Z,18.38
2022-12-23T04:20:59.823Z,16.50
2022-12-23T04:23:26.233Z,13.90
2022-12-23T04:25:52.576Z,13.95
2022-12-23T04:28:20.083Z,14.43
2022-12-23T04:30:46.567Z,13.55
2022-12-23T04:33:13.167Z,15.02
2022-12-23T04:35:39.674Z,15.70
2022-12-23T04:38:06.084Z,12.38
2022-12-23T04:40:32.445Z,12.48
2022-12-23T04:42:58.779Z,15.45
2022-12-23T04:45:25.166Z,14.43
2022-12-23T04:47:51.625Z,14.95
2022-12-23T04:50:18.129Z,15.77
2022-12-23T04:52:44.730Z,16.95
2022-12-23T04:55:11.362Z,16.83
2022-12-23T04:57:37.843Z,17.50
2022-12-23T05:00:05.246Z,17.88
2022-12-23T05:02:31.710Z,16.98
2022-12-23T05:04:58.187Z,16.77
2022-12-23T05:07:24.908Z,18.83
2022-12-23T05:09:51.351Z,19.27
2022-12-23T05:12:17.829Z,20.92
2022-12-23T05:14:44.314Z,19.60
2022-12-23T05:17:10.631Z,21.52
2022-12-23T05:19:37.165Z,20.58
2022-12-23T05:22:03.541Z,19.63
2022-12-23T05:24:29.884Z,19.20
2022-12-23T05:26:59.995Z,19.80
2022-12-23T05:29:27.046Z,22.83
2022-12-23T05:31:53.546Z,20.38
2022-12-23T05:34:20.152Z,21.77
2022-12-23T05:36:46.575Z,23.95
2022-12-23T05:39:13.054Z,23.95
2022-12-23T05:41:39.525Z,22.13
2022-12-23T05:44:05.967Z,20.90
2022-12-23T05:46:32.620Z,20.48
2022-12-23T05:48:59.332Z,19.23
2022-12-23T05:51:25.775Z,17.75
2022-12-23T05:53:52.179Z,21.70
2022-12-23T05:56:18.772Z,19.90
2022-12-23T05:58:45.232Z,21.67
2022-12-23T06:01:11.559Z,15.60
2022-12-23T06:03:38.198Z,18.42
2022-12-23T06:06:05.086Z,17.63
2022-12-23T06:08:31.428Z,18.88
2022-12-23T06:10:59.908Z,19.15
2022-12-23T06:13:26.400Z,18.75
2022-12-23T06:15:52.831Z,19.80
2022-12-23T06:18:19.236Z,17.75
2022-12-23T06:20:47.607Z,19.95
2022-12-23T06:23:14.118Z,20.58
2022-12-23T06:25:40.526Z,16.85
2022-12-23T06:28:07.820Z,17.98
2022-12-23T06:30:34.503Z,14.55
2022-12-23T06:33:01.647Z,15.18
2022-12-23T06:35:28.210Z,14.85
2022-12-23T06:37:54.727Z,20.50
2022-12-23T06:40:21.585Z,18.58
2022-12-23T06:42:47.999Z,13.45
2022-12-23T06:45:14.748Z,17.70
2022-12-23T06:47:41.153Z,12.98
2022-12-23T06:50:08.997Z,14.38
2022-12-23T06:52:35.795Z,14.50
2022-12-23T06:55:02.337Z,12.20
2022-12-23T06:57:28.767Z,12.85
2022-12-23T06:59:55.946Z,12.52
2022-12-23T07:02:22.577Z,16.73
2022-12-23T07:04:49.225Z,12.90
2022-12-23T07:07:15.557Z,13.55
2022-12-23T07:09:41.975Z,14.43
2022-12-23T07:12:08.472Z,13.85
2022-12-23T07:14:35.090Z,14.57
2022-12-23T07:17:01.666Z,15.40
2022-12-23T07:19:28.178Z,17.33
2022-12-23T07:21:54.891Z,17.35
2022-12-23T07:24:21.384Z,13.88
2022-12-23T07:26:47.972Z,13.10
2022-12-23T07:29:14.573Z,18.88
2022-12-23T07:31:41.575Z,14.02
2022-12-23T07:34:08.625Z,14.75
2022-12-23T07:36:35.588Z,14.52
2022-12-23T07:39:02.449Z,13.52
2022-12-23T07:41:29.210Z,14.35
2022-12-23T07:43:55.567Z,13.57
2022-12-23T07:46:22.564Z,13.60
2022-12-23T07:48:49.408Z,14.43
2022-12-23T07:51:15.836Z,12.88
2022-12-23T07:53:42.605Z,12.30
2022-12-23T07:56:09.488Z,13.32
2022-12-23T07:58:36.159Z,13.52
2022-12-23T08:01:08.723Z,12.00
2022-12-23T08:03:35.697Z,13.43
2022-12-23T08:06:14.280Z,13.52
2022-12-23T08:11:10.219Z,14.25
2022-12-23T08:13:39.348Z,12.35
2022-12-23T08:16:10.237Z,12.73
2022-12-23T08:18:41.201Z,13.35
2022-12-23T08:21:19.677Z,14.82
2022-12-23T08:23:47.597Z,14.18
2022-12-23T08:26:17.237Z,14.00
2022-12-23T08:28:44.800Z,16.63
2022-12-23T08:31:21.259Z,20.83
2022-12-23T08:33:50.219Z,14.50
2022-12-23T08:36:23.019Z,16.27
2022-12-23T08:38:52.193Z,16.55
2022-12-23T08:41:23.630Z,15.23
2022-12-23T08:43:50.602Z,16.25
2022-12-23T08:46:18.350Z,17.00
2022-12-23T08:48:49.083Z,18.50
2022-12-23T08:51:18.009Z,18.73
2022-12-23T08:53:45.290Z,20.95
2022-12-23T08:56:15.284Z,18.95
2022-12-23T08:58:47.684Z,18.17
2022-12-23T09:01:17.296Z,19.45
2022-12-23T09:03:44.550Z,20.77
2022-12-23T09:06:14.373Z,19.83
2022-12-23T09:08:41.671Z,25.77
2022-12-23T09:11:17.281Z,21.52
2022-12-23T09:13:44.172Z,25.45
2022-12-23T09:16:11.486Z,19.00
2022-12-23T09:18:38.532Z,29.13
2022-12-23T09:21:11.708Z,22.05
2022-12-23T09:23:38.030Z,26.38
2022-12-23T09:26:05.353Z,25.83
2022-12-23T09:28:31.765Z,26.77
2022-12-23T09:30:58.132Z,28.02
2022-12-23T09:33:24.615Z,29.27
2022-12-23T09:35:51.018Z,29.88
2022-12-23T09:38:17.403Z,31.27
2022-12-23T09:40:43.904Z,35.20
2022-12-23T09:43:22.196Z,35.38
2022-12-23T09:46:05.993Z,32.15
2022-12-23T09:48:45.501Z,28.48
2022-12-23T09:51:13.673Z,38.63
2022-12-23T09:53:55.892Z,31.55
2022-12-23T09:56:34.179Z,41.33
2022-12-23T09:59:14.611Z,34.58
2022-12-23T10:02:00.798Z,31.00
2022-12-23T10:04:45.531Z,31.33
2022-12-23T10:07:26.432Z,23.63
2022-12-23T10:09:55.285Z,34.22
2022-12-23T10:12:40.535Z,29.85
2022-12-23T10:15:21.472Z,27.83
2022-12-23T10:17:52.619Z,28.45
2022-12-23T10:20:30.244Z,29.30
2022-12-23T10:22:57.525Z,29.53
2022-12-23T10:25:33.157Z,33.72
2022-12-23T10:27:59.537Z,28.70
2022-12-23T10:30:53.963Z,24.67
2022-12-23T10:33:21.994Z,23.38
2022-12-23T10:35:53.338Z,27.40
2022-12-23T10:38:26.410Z,25.80
2022-12-23T10:41:28.573Z,24.45
2022-12-23T10:44:04.158Z,23.50
2022-12-23T10:46:45.663Z,26.42
2022-12-23T10:49:30.767Z,24.73
2022-12-23T10:52:06.729Z,26.80
2022-12-23T10:54:34.812Z,30.23
2022-12-23T10:57:02.859Z,27.13
2022-12-23T10:59:32.354Z,29.08
2022-12-23T11:02:20.943Z,33.05
2022-12-23T11:04:49.634Z,30.27
2022-12-23T11:10:15.844Z,27.27
2022-12-23T11:12:45.631Z,31.15
2022-12-23T11:15:39.705Z,32.20
2022-12-23T11:18:12.238Z,37.35
2022-12-23T11:20:40.850Z,30.58
2022-12-23T11:23:23.771Z,27.70
2022-12-23T11:26:03.776Z,51.92
2022-12-23T11:28:32.765Z,33.28
2022-12-23T11:31:09.484Z,38.53
2022-12-23T11:33:39.816Z,38.42
2022-12-23T11:36:08.338Z,41.25
2022-12-23T11:38:37.770Z,40.35
2022-12-23T11:41:05.611Z,40.72
2022-12-23T11:43:33.095Z,43.22
2022-12-23T11:46:28.935Z,49.00
2022-12-23T11:49:05.961Z,46.10
2022-12-23T11:51:32.449Z,46.28
2022-12-23T11:54:02.713Z,48.38
2022-12-23T11:56:36.206Z,37.30
2022-12-23T11:59:07.839Z,41.30
2022-12-23T12:01:36.284Z,46.38
2022-12-23T12:04:09.292Z,40.72
2022-12-23T12:06:42.185Z,45.17
2022-12-23T12:09:12.881Z,42.10
2022-12-23T12:11:46.621Z,44.88
2022-12-23T12:14:22.852Z,37.38
2022-12-23T12:17:27.495Z,42.00
2022-12-23T12:20:06.442Z,38.83
2022-12-23T12:22:43.588Z,36.38
2022-12-23T12:25:17.847Z,36.00
2022-12-23T12:27:51.824Z,35.10
2022-12-23T12:30:20.788Z,33.30
2022-12-23T12:33:12.071Z,35.88
2022-12-23T12:35:45.567Z,30.23
2022-12-23T12:38:38.995Z,30.27
2022-12-23T12:41:33.560Z,31.55
2022-12-23T12:44:37.396Z,34.20
2022-12-23T12:47:36.098Z,29.83
2022-12-23T12:50:02.294Z,27.90
2022-12-23T12:52:35.720Z,25.38
2022-12-23T12:55:13.850Z,23.08
2022-12-23T12:57:40.962Z,25.73
2022-12-23T13:00:17.894Z,27.92
2022-12-23T13:03:12.298Z,20.88
2022-12-23T13:06:00.782Z,23.48
2022-12-23T13:11:15.999Z,25.60
2022-12-23T13:14:00.806Z,25.50
2022-12-23T13:16:43.132Z,29.48
2022-12-23T13:19:31.043Z,25.02
2022-12-23T13:22:16.273Z,25.25
2022-12-23T13:25:03.522Z,26.50
2022-12-23T13:27:33.906Z,26.98
2022-12-23T13:30:14.444Z,28.55
2022-12-23T13:33:05.031Z,22.40
2022-12-23T13:35:46.223Z,22.77
2022-12-23T13:38:34.145Z,22.67
2022-12-23T13:41:05.839Z,23.15
2022-12-23T13:43:57.274Z,19.88
2022-12-23T13:46:46.073Z,22.02
2022-12-23T13:49:31.467Z,20.70
2022-12-23T13:52:19.422Z,22.25
2022-12-23T13:55:23.215Z,24.35
2022-12-23T13:58:00.856Z,22.13
2022-12-23T14:00:32.827Z,22.03
2022-12-23T14:03:02.319Z,21.67
2022-12-23T14:05:41.063Z,19.30
2022-12-23T14:08:20.064Z,24.15
2022-12-23T14:11:00.072Z,20.00
2022-12-23T14:13:51.284Z,21.80
2022-12-23T14:16:40.984Z,19.95
2022-12-23T14:19:26.132Z,17.73
2022-12-23T14:22:19.025Z,20.13
2022-12-23T14:25:11.213Z,17.48
2022-12-23T14:27:52.823Z,15.80
2022-12-23T14:30:32.837Z,19.73
2022-12-23T14:33:02.004Z,16.33
2022-12-23T14:35:34.254Z,15.90
2022-12-23T14:38:13.739Z,17.42
2022-12-23T14:40:43.396Z,18.40
2022-12-23T14:43:21.955Z,21.00
2022-12-23T14:45:53.387Z,17.42
2022-12-23T14:48:41.563Z,18.17
2022-12-23T14:51:11.063Z,24.00
2022-12-23T14:54:00.329Z,17.08
2022-12-23T14:56:38.584Z,12.88
2022-12-23T14:59:29.300Z,15.90
2022-12-23T15:02:00.333Z,16.83
2022-12-23T15:04:45.213Z,16.77
2022-12-23T15:07:27.679Z,16.13
2022-12-23T15:10:00.996Z,14.05
2022-12-23T15:12:35.271Z,15.13
2022-12-23T15:15:29.297Z,15.05
2022-12-23T15:18:09.531Z,16.58
2022-12-23T15:20:35.978Z,12.70
2022-12-23T15:23:09.858Z,15.10
2022-12-23T15:25:43.520Z,16.48
2022-12-23T15:28:22.407Z,16.88
2022-12-23T15:30:53.609Z,17.55
2022-12-23T15:34:00.952Z,18.80
2022-12-23T15:36:10.440Z,15.05
2022-12-23T15:38:38.980Z,16.03
2022-12-23T15:41:14.914Z,18.50
2022-12-23T15:43:43.484Z,13.90
2022-12-23T15:48:41.777Z,15.50
2022-12-23T15:51:50.092Z,16.65
2022-12-23T15:54:29.193Z,16.00
2022-12-23T15:56:58.486Z,14.95
2022-12-23T15:59:32.995Z,16.83
2022-12-23T16:02:32.071Z,16.38
2022-12-23T16:04:56.292Z,14.38
2022-12-23T16:07:42.271Z,15.90
2022-12-23T16:10:15.780Z,18.17
2022-12-23T16:12:43.546Z,19.77
2022-12-23T16:15:27.842Z,20.03
2022-12-23T16:18:23.736Z,17.70
2022-12-23T16:20:53.956Z,21.40
2022-12-23T16:23:21.413Z,16.02
2022-12-23T16:25:51.139Z,17.45
2022-12-23T16:28:24.086Z,19.30
2022-12-23T16:30:57.130Z,18.98
2022-12-23T16:33:32.579Z,21.25
2022-12-23T16:36:22.091Z,21.65
2022-12-23T16:38:51.295Z,21.23
2022-12-23T16:41:19.463Z,20.52
2022-12-23T16:43:52.138Z,22.80
2022-12-23T16:46:21.896Z,22.42
2022-12-23T16:48:55.410Z,23.85
2022-12-23T16:51:23.450Z,24.23
2022-12-23T16:53:51.708Z,22.17
2022-12-23T16:56:20.340Z,24.10
2022-12-23T17:01:24.996Z,25.08
2022-12-23T17:03:51.888Z,25.35
2022-12-23T17:06:20.391Z,24.98
2022-12-23T17:08:48.055Z,24.48
2022-12-23T17:11:17.671Z,26.90
2022-12-23T17:13:44.903Z,23.60
2022-12-23T17:16:17.840Z,25.95
2022-12-23T17:18:44.289Z,26.75
2022-12-23T17:21:39.149Z,17.30
2022-12-23T17:24:11.350Z,20.27
2022-12-23T17:26:37.771Z,21.30
2022-12-23T17:29:05.496Z,21.58
2022-12-23T17:31:33.907Z,25.03
2022-12-23T17:34:01.076Z,21.67
2022-12-23T17:36:27.649Z,20.40
2022-12-23T17:38:54.026Z,19.08
2022-12-23T17:41:28.477Z,17.38
2022-12-23T17:43:55.067Z,21.65
2022-12-23T17:46:21.973Z,18.95
2022-12-23T17:48:48.548Z,16.67
2022-12-23T17:51:17.239Z,19.27
2022-12-23T17:53:44.688Z,17.17
2022-12-23T17:56:21.831Z,20.73
2022-12-23T17:58:49.796Z,24.33
2022-12-23T18:01:26.274Z,22.40
2022-12-23T18:03:53.477Z,23.17
2022-12-23T18:06:21.625Z,23.55
2022-12-23T18:08:48.575Z,22.15
2022-12-23T18:11:29.665Z,26.02
2022-12-23T18:13:56.197Z,31.92
2022-12-23T18:16:22.617Z,27.77
2022-12-23T18:18:49.046Z,30.60
2022-12-23T18:21:25.142Z,26.15
2022-12-23T18:23:54.722Z,36.08
2022-12-23T18:26:21.219Z,42.28
2022-12-23T18:28:47.770Z,33.80
2022-12-23T18:31:18.101Z,39.53
2022-12-23T18:33:45.221Z,36.28
2022-12-23T18:36:32.883Z,37.83
2022-12-23T18:38:59.870Z,36.30
2022-12-23T18:41:27.163Z,43.42
2022-12-23T18:43:54.182Z,36.90
2022-12-23T18:46:20.784Z,47.30
2022-12-23T18:48:47.825Z,37.42
2022-12-23T18:51:20.068Z,38.13
2022-12-23T18:53:47.838Z,38.30
2022-12-23T18:56:16.173Z,34.23
2022-12-23T18:58:42.741Z,33.92
2022-12-23T19:01:13.541Z,45.85
2022-12-23T19:03:40.975Z,41.72
2022-12-23T19:06:09.641Z,33.50
2022-12-23T19:11:10.534Z,35.05
2022-12-23T19:13:36.859Z,34.80
2022-12-23T19:16:03.603Z,37.13
2022-12-23T19:18:29.964Z,28.10
2022-12-23T19:20:56.323Z,27.25
2022-12-23T19:23:22.787Z,28.02
2022-12-23T19:25:55.335Z,27.55
2022-12-23T19:28:23.541Z,29.35
2022-12-23T19:30:50.068Z,32.17
2022-12-23T19:33:19.634Z,35.10
2022-12-23T19:35:46.129Z,32.00
2022-12-23T19:38:12.801Z,35.65
2022-12-23T19:40:39.375Z,27.58
2022-12-23T19:43:05.727Z,31.65
2022-12-23T19:45:32.142Z,30.88
2022-12-23T19:47:58.704Z,33.85
2022-12-23T19:50:27.026Z,33.58
2022-12-23T19:52:54.707Z,34.47
2022-12-23T19:55:21.207Z,39.53
2022-12-23T19:57:47.563Z,31.48
2022-12-23T20:00:15.942Z,35.85
2022-12-23T20:02:43.223Z,32.40
2022-12-23T20:05:10.085Z,35.65
2022-12-23T20:07:37.114Z,22.67
2022-12-23T20:10:05.557Z,34.55
2022-12-23T20:12:32.148Z,37.25
2022-12-23T20:14:58.604Z,33.00
2022-12-23T20:17:25.246Z,25.95
2022-12-23T20:19:51.730Z,24.88
2022-12-23T20:22:18.132Z,33.78
2022-12-23T20:24:51.046Z,25.55
2022-12-23T20:27:20.157Z,24.20
2022-12-23T20:29:49.243Z,31.85
2022-12-23T20:32:15.584Z,27.13
2022-12-23T20:34:41.950Z,28.33
2022-12-23T20:37:08.541Z,28.90
2022-12-23T20:39:37.132Z,23.08
2022-12-23T20:42:03.848Z,24.73
2022-12-23T20:44:35.697Z,21.63
2022-12-23T20:47:03.590Z,16.15
2022-12-23T20:49:30.221Z,17.98
2022-12-23T20:51:57.185Z,15.40
2022-12-23T20:54:29.749Z,14.02
2022-12-23T20:56:58.937Z,20.60
2022-12-23T20:59:25.781Z,17.55
2022-12-23T21:01:52.272Z,15.25
2022-12-23T21:04:18.852Z,10.50
2022-12-23T21:06:45.454Z,11.55
2022-12-23T21:09:13.932Z,14.27
2022-12-23T21:11:43.537Z,18.98
2022-12-23T21:14:10.632Z,19.75
2022-12-23T21:16:38.466Z,17.55
2022-12-23T21:19:06.705Z,21.05
2022-12-23T21:21:33.612Z,21.88
2022-12-23T21:24:04.038Z,24.77
2022-12-23T21:26:31.363Z,31.42
2022-12-23T21:28:59.432Z,25.65
2022-12-23T21:31:27.794Z,34.95
2022-12-23T21:33:54.854Z,31.77
2022-12-23T21:36:24.434Z,29.65
2022-12-23T21:38:51.634Z,31.50
2022-12-23T21:41:20.511Z,21.30
2022-12-23T21:43:47.468Z,37.95
2022-12-23T21:46:17.063Z,27.02
2022-12-23T21:48:44.367Z,22.25
2022-12-23T21:51:21.112Z,27.67
2022-12-23T21:53:49.998Z,30.55
2022-12-23T21:56:18.574Z,16.73
2022-12-23T21:58:45.290Z,25.27
2022-12-23T22:01:20.124Z,29.30
2022-12-23T22:03:48.690Z,34.70
2022-12-23T22:06:22.063Z,23.98
2022-12-23T22:08:49.431Z,25.10
2022-12-23T22:11:19.140Z,27.20
2022-12-23T22:13:46.515Z,23.73
2022-12-23T22:16:19.400Z,27.42
2022-12-23T22:18:46.810Z,25.52
2022-12-23T22:21:15.901Z,33.45
2022-12-23T22:23:42.950Z,23.70
2022-12-23T22:26:12.005Z,24.48
2022-12-23T22:28:39.360Z,31.70
2022-12-23T22:31:10.684Z,25.88
2022-12-23T22:33:37.073Z,32.83
2022-12-23T22:36:04.247Z,20.45
2022-12-23T22:38:30.600Z,27.27
2022-12-23T22:40:57.042Z,27.20
2022-12-23T22:43:23.465Z,24.55
2022-12-23T22:46:01.042Z,21.13
2022-12-23T22:48:29.456Z,24.77
2022-12-23T22:51:07.511Z,23.00
2022-12-23T22:53:33.872Z,21.70
2022-12-23T22:56:00.939Z,30.92
2022-12-23T22:58:28.420Z,18.67
2022-12-23T23:00:54.936Z,28.23
2022-12-23T23:03:21.721Z,25.50
2022-12-23T23:06:03.486Z,28.80
2022-12-23T23:08:30.828Z,28.88
2022-12-23T23:10:59.437Z,23.60
2022-12-23T23:15:54.599Z,17.48
2022-12-23T23:18:21.333Z,23.48
2022-12-23T23:20:48.060Z,23.88
2022-12-23T23:23:14.510Z,24.70
2022-12-23T23:25:40.994Z,18.05
2022-12-23T23:28:07.476Z,25.08
2022-12-23T23:30:33.847Z,26.70
2022-12-23T23:33:00.187Z,25.08
2022-12-23T23:35:26.865Z,20.77
2022-12-23T23:37:53.370Z,25.63
2022-12-23T23:40:19.913Z,20.58
2022-12-23T23:42:46.421Z,24.15
2022-12-23T23:45:12.785Z,20.88
2022-12-23T23:47:39.167Z,25.48
2022-12-23T23:50:06.548Z,19.27
2022-12-23T23:52:32.968Z,24.67
2022-12-23T23:54:59.664Z,25.00
2022-12-23T23:57:26.385Z,38.08
2022-12-23T23:59:53.061Z,26.05
